Time;durP1;ratioP1;P1;durP2;ratioP2;P2;SDS_P1;SDS_P2;PMS_P1;PMS_P2;Temp;Humidity;BMP_temperature;BMP_pressure;BME280_temperature;BME280_humidity;BME280_pressure;Samples;Min_cycle;Max_cycle;Signal;HPM_P1;HPM_P2
2022/11/04 00:01:55;;;;;;;6.90;2.57;;;10.80;99.90;;;;;;5034041;28;20200;-45
2022/11/04 00:04:24;;;;;;;5.53;3.03;;;10.80;99.90;;;;;;5035975;28;20234;-45
2022/11/04 00:06:51;;;;;;;5.17;2.73;;;10.70;99.90;;;;;;5040641;28;20195;-47
2022/11/04 00:09:20;;;;;;;5.87;2.90;;;10.70;99.90;;;;;;5030161;28;20207;-51
2022/11/04 00:14:34;;;;;;;4.10;2.57;;;10.70;99.90;;;;;;5034463;28;20588;-50
2022/11/04 00:17:18;;;;;;;7.00;3.57;;;10.70;99.90;;;;;;5036265;28;20200;-45
2022/11/04 00:30:56;;;;;;;3.30;3.00;;;10.60;99.90;;;;;;5034769;28;20215;-45
2022/11/04 00:33:24;;;;;;;4.17;2.97;;;10.60;99.90;;;;;;5032345;28;20219;-46
2022/11/04 00:35:52;;;;;;;7.87;2.73;;;10.60;99.90;;;;;;5041370;28;20274;-45
2022/11/04 00:38:19;;;;;;;9.83;3.23;;;10.60;99.90;;;;;;5042513;28;20195;-46
2022/11/04 00:40:46;;;;;;;5.40;2.97;;;10.60;99.90;;;;;;5027505;28;20200;-45
2022/11/04 00:43:14;;;;;;;6.37;3.47;;;10.60;99.90;;;;;;5038539;28;20215;-47
2022/11/04 00:45:41;;;;;;;6.20;3.37;;;10.60;99.90;;;;;;5036112;28;20215;-45
2022/11/04 00:48:08;;;;;;;6.93;3.30;;;10.60;99.90;;;;;;5042660;28;20245;-45
2022/11/04 00:50:34;;;;;;;4.67;3.13;;;10.60;99.90;;;;;;5036019;28;20195;-45
2022/11/04 00:53:02;;;;;;;6.63;3.03;;;10.60;99.90;;;;;;5042661;28;20703;-49
2022/11/04 00:55:29;;;;;;;5.43;2.80;;;10.60;99.90;;;;;;5027055;28;20686;-49
2022/11/04 00:57:58;;;;;;;6.50;3.07;;;10.60;99.90;;;;;;5041158;28;20207;-45
2022/11/04 01:00:26;;;;;;;7.70;3.47;;;10.60;99.90;;;;;;5033456;28;20202;-46
2022/11/04 01:02:53;;;;;;;2.97;2.53;;;10.60;99.90;;;;;;5040023;28;20301;-45
2022/11/04 01:05:19;;;;;;;6.43;3.00;;;10.60;99.90;;;;;;5036678;28;20918;-47
2022/11/04 01:07:46;;;;;;;4.13;3.30;;;10.60;99.90;;;;;;5040532;28;20191;-46
2022/11/04 01:10:13;;;;;;;3.73;3.30;;;10.60;99.90;;;;;;5030147;28;20565;-45
2022/11/04 01:12:39;;;;;;;4.80;3.60;;;10.60;99.90;;;;;;5038563;28;20221;-45
2022/11/04 01:15:06;;;;;;;5.70;3.40;;;10.60;99.90;;;;;;5038095;28;20672;-46
2022/11/04 01:17:35;;;;;;;4.87;3.10;;;10.60;99.90;;;;;;5035284;28;20207;-46
2022/11/04 01:20:02;;;;;;;4.20;3.20;;;10.60;99.90;;;;;;5042960;28;20203;-48
2022/11/04 01:22:29;;;;;;;3.93;2.63;;;10.70;99.90;;;;;;5035553;28;20210;-47
2022/11/04 01:24:55;;;;;;;4.47;3.13;;;10.70;99.90;;;;;;5041355;28;20219;-47
2022/11/04 01:27:22;;;;;;;4.60;3.17;;;10.70;99.90;;;;;;5028444;28;20206;-49
2022/11/04 01:29:49;;;;;;;4.83;3.27;;;10.70;99.90;;;;;;5040333;28;20411;-47
2022/11/04 01:32:15;;;;;;;4.23;3.10;;;10.70;99.90;;;;;;5046070;28;20206;-46
2022/11/04 01:34:43;;;;;;;5.27;3.10;;;10.70;99.90;;;;;;5038356;28;20319;-45
2022/11/04 01:37:10;;;;;;;4.60;3.03;;;10.70;99.90;;;;;;5041679;28;20211;-46
2022/11/04 01:39:37;;;;;;;4.47;2.90;;;10.70;99.90;;;;;;5042673;28;20195;-47
2022/11/04 01:42:03;;;;;;;8.43;3.10;;;10.80;99.90;;;;;;5033834;28;20207;-46
2022/11/04 01:44:54;;;;;;;5.83;3.13;;;10.70;99.90;;;;;;5041062;28;20233;-50
2022/11/04 01:47:25;;;;;;;3.93;2.90;;;10.80;99.90;;;;;;5044057;28;20200;-47
2022/11/04 01:49:57;;;;;;;6.57;3.03;;;10.70;99.90;;;;;;5043154;28;20195;-45
2022/11/04 01:52:30;;;;;;;4.40;3.17;;;10.70;99.90;;;;;;5039638;28;20210;-48
2022/11/04 01:55:01;;;;;;;6.27;3.47;;;10.80;99.90;;;;;;5038964;28;20215;-45
2022/11/04 01:57:34;;;;;;;5.40;3.80;;;10.80;99.90;;;;;;5034313;28;20199;-46
2022/11/04 02:00:04;;;;;;;6.43;3.70;;;10.80;99.90;;;;;;5045936;28;20199;-45
2022/11/04 02:02:46;;;;;;;7.43;3.73;;;10.80;99.90;;;;;;5037694;28;20219;-45
2022/11/04 02:05:14;;;;;;;7.00;3.53;;;10.80;99.90;;;;;;5039982;28;20642;-47
2022/11/04 02:07:40;;;;;;;5.90;3.77;;;10.80;99.90;;;;;;5036047;28;20678;-46
2022/11/04 02:10:08;;;;;;;4.70;3.63;;;10.80;99.90;;;;;;5042184;28;20196;-49
2022/11/04 02:12:50;;;;;;;7.53;4.07;;;10.80;99.90;;;;;;5045846;28;20211;-44
2022/11/04 02:15:23;;;;;;;4.33;3.93;;;10.80;99.90;;;;;;5034496;28;20199;-43
2022/11/04 02:18:13;;;;;;;6.53;3.63;;;10.80;99.90;;;;;;5045399;28;20206;-48
2022/11/04 02:21:26;;;;;;;7.13;3.70;;;10.80;99.90;;;;;;5035853;28;20225;-46
2022/11/04 02:24:18;;;;;;;5.30;3.83;;;10.80;99.90;;;;;;5039970;28;20238;-46
2022/11/04 02:27:06;;;;;;;7.03;4.10;;;10.80;99.90;;;;;;5042269;28;20207;-44
2022/11/04 02:29:47;;;;;;;8.47;4.57;;;10.80;99.90;;;;;;5029986;28;20657;-44
2022/11/04 02:32:21;;;;;;;5.40;3.80;;;10.80;99.90;;;;;;5041649;28;20876;-43
2022/11/04 02:34:56;;;;;;;4.80;3.93;;;10.80;99.90;;;;;;5045388;28;20545;-45
2022/11/04 02:37:31;;;;;;;5.57;4.00;;;10.80;99.90;;;;;;5043854;28;20203;-45
2022/11/04 02:40:09;;;;;;;4.43;4.00;;;10.80;99.90;;;;;;5037968;28;20210;-47
2022/11/04 02:42:42;;;;;;;5.40;3.80;;;10.80;99.90;;;;;;5042668;28;20207;-46
2022/11/04 02:45:15;;;;;;;8.97;4.10;;;10.80;99.90;;;;;;5022046;28;20220;-45
2022/11/04 02:47:45;;;;;;;4.47;4.07;;;10.70;99.90;;;;;;5045382;28;20200;-45
2022/11/04 02:50:17;;;;;;;5.87;4.47;;;10.80;99.90;;;;;;5041881;28;20202;-45
2022/11/04 02:52:49;;;;;;;5.30;4.23;;;10.70;99.90;;;;;;5045656;28;20199;-47
2022/11/04 02:55:19;;;;;;;7.10;3.93;;;10.70;99.90;;;;;;5037346;28;20847;-44
2022/11/04 02:57:47;;;;;;;4.90;4.17;;;10.70;99.90;;;;;;5042163;28;20207;-44
2022/11/04 03:00:19;;;;;;;6.53;4.13;;;10.70;99.90;;;;;;5028708;28;20308;-44
2022/11/04 03:02:49;;;;;;;8.27;4.17;;;10.70;99.90;;;;;;5044952;28;20214;-44
2022/11/04 03:05:20;;;;;;;4.70;4.10;;;10.70;99.90;;;;;;5035151;28;20226;-44
2022/11/04 03:07:49;;;;;;;7.80;4.13;;;10.70;99.90;;;;;;5039320;28;20204;-46
2022/11/04 03:10:19;;;;;;;5.63;4.63;;;10.60;99.90;;;;;;5037579;28;20200;-44
2022/11/04 03:12:51;;;;;;;9.47;4.10;;;10.60;99.90;;;;;;5040244;28;20208;-45
2022/11/04 03:15:24;;;;;;;4.60;4.17;;;10.60;99.90;;;;;;5028581;28;20207;-45
2022/11/04 03:18:02;;;;;;;6.43;4.70;;;10.60;99.90;;;;;;5044168;28;20203;-46
2022/11/04 03:20:31;;;;;;;8.73;4.50;;;10.60;99.90;;;;;;5043024;28;20706;-44
2022/11/04 03:22:59;;;;;;;7.10;4.20;;;10.60;99.90;;;;;;5042602;28;20265;-49
2022/11/04 03:25:32;;;;;;;5.07;4.50;;;10.60;99.90;;;;;;5035578;28;20219;-44
2022/11/04 03:28:04;;;;;;;9.13;4.67;;;10.60;99.90;;;;;;5040381;28;20202;-47
2022/11/04 03:30:38;;;;;;;10.10;5.07;;;10.60;99.90;;;;;;5031740;28;20214;-44
2022/11/04 03:33:16;;;;;;;10.70;4.80;;;10.60;99.90;;;;;;5040472;28;20227;-48
2022/11/04 03:35:43;;;;;;;10.00;4.37;;;10.60;99.90;;;;;;5033199;28;20187;-45
2022/11/04 03:38:10;;;;;;;5.50;4.40;;;10.60;99.90;;;;;;5040843;28;20463;-44
2022/11/04 03:40:37;;;;;;;5.63;4.77;;;10.60;99.90;;;;;;5041083;28;20206;-44
2022/11/04 03:43:09;;;;;;;5.03;4.50;;;10.60;99.90;;;;;;5036775;28;20246;-46
2022/11/04 03:45:39;;;;;;;4.80;4.30;;;10.60;99.90;;;;;;5027869;28;20710;-44
2022/11/04 03:48:06;;;;;;;7.40;4.87;;;10.60;99.90;;;;;;5040345;28;20235;-44
2022/11/04 03:50:41;;;;;;;5.47;4.23;;;10.60;99.90;;;;;;5043934;28;20283;-44
2022/11/04 03:53:09;;;;;;;5.90;4.60;;;10.60;99.90;;;;;;5040583;28;20268;-44
2022/11/04 03:55:43;;;;;;;6.47;4.67;;;10.60;99.90;;;;;;5044261;28;20274;-45
2022/11/04 03:58:21;;;;;;;10.43;5.03;;;10.70;99.90;;;;;;5036109;28;20834;-45
2022/11/04 04:00:56;;;;;;;7.50;4.90;;;10.70;99.90;;;;;;5038114;28;20214;-49
2022/11/04 04:03:30;;;;;;;7.00;4.90;;;10.70;99.90;;;;;;5036969;28;20356;-46
2022/11/04 04:06:03;;;;;;;4.83;4.23;;;10.70;99.90;;;;;;5041922;28;20215;-44
2022/11/04 04:08:37;;;;;;;6.17;4.97;;;10.70;99.90;;;;;;5035122;28;20213;-46
2022/11/04 04:11:11;;;;;;;5.07;4.43;;;10.70;99.90;;;;;;5043901;28;20210;-44
2022/11/04 04:13:43;;;;;;;6.17;4.70;;;10.80;99.90;;;;;;5034311;28;20223;-45
2022/11/04 04:16:18;;;;;;;6.37;4.87;;;10.80;99.90;;;;;;5040015;28;20203;-45
2022/11/04 04:18:50;;;;;;;8.50;4.80;;;10.80;99.90;;;;;;5030746;28;20201;-44
2022/11/04 04:21:22;;;;;;;5.60;4.83;;;10.90;99.90;;;;;;5043771;28;20207;-47
2022/11/04 04:29:26;;;;;;;7.30;5.40;;;10.90;99.90;;;;;;5041949;28;20199;-46
2022/11/04 04:31:57;;;;;;;5.43;4.80;;;11.00;99.90;;;;;;5025770;28;20212;-44
2022/11/04 04:34:27;;;;;;;6.30;4.90;;;11.00;99.90;;;;;;5040417;28;20221;-46
2022/11/04 04:37:00;;;;;;;5.63;5.07;;;11.10;99.90;;;;;;5042507;28;20191;-44
2022/11/04 04:45:06;;;;;;;5.13;4.00;;;11.10;99.90;;;;;;5042860;28;20261;-44
2022/11/04 04:47:45;;;;;;;3.87;3.50;;;11.20;99.90;;;;;;5026742;28;20211;-48
2022/11/04 04:50:15;;;;;;;4.20;3.80;;;11.20;99.90;;;;;;5043663;28;20220;-44
2022/11/04 04:52:44;;;;;;;4.30;2.80;;;11.20;99.90;;;;;;5039445;28;20195;-44
2022/11/04 04:55:12;;;;;;;5.63;3.87;;;11.30;99.90;;;;;;5042813;28;20191;-47
2022/11/04 04:57:39;;;;;;;4.53;3.30;;;11.30;99.90;;;;;;5035337;28;20198;-44
2022/11/04 05:00:09;;;;;;;5.27;3.20;;;11.40;99.90;;;;;;5038819;28;20204;-46
2022/11/04 05:02:35;;;;;;;6.47;3.27;;;11.40;99.90;;;;;;5021458;28;20211;-49
2022/11/04 05:05:04;;;;;;;3.00;2.80;;;11.40;99.90;;;;;;5037423;28;20227;-44
2022/11/04 05:07:31;;;;;;;3.40;2.60;;;11.50;99.90;;;;;;5035922;28;20191;-48
2022/11/04 05:09:59;;;;;;;2.83;2.63;;;11.50;99.90;;;;;;5042753;28;20203;-48
2022/11/04 05:13:24;;;;;;;3.13;1.73;;;11.50;99.90;;;;;;5036306;28;20199;-44
2022/11/04 05:15:13;;;;;;;1.90;1.80;;;11.50;99.90;;;;;;5038421;28;20199;-46
2022/11/04 05:17:40;;;;;;;3.03;2.73;;;11.50;99.90;;;;;;5019126;28;20294;-44
2022/11/04 05:20:10;;;;;;;2.47;2.27;;;11.50;99.90;;;;;;5042184;28;20203;-46
2022/11/04 05:22:37;;;;;;;4.60;2.47;;;11.50;99.90;;;;;;5030225;28;20199;-44
2022/11/04 05:25:05;;;;;;;5.03;3.03;;;11.50;99.90;;;;;;5038619;28;20238;-46
2022/11/04 05:27:32;;;;;;;3.70;2.50;;;11.50;99.90;;;;;;5039606;28;20195;-46
2022/11/04 05:29:59;;;;;;;4.80;3.17;;;11.50;99.90;;;;;;5042895;28;20206;-45
2022/11/04 05:32:28;;;;;;;5.17;4.10;;;11.50;99.90;;;;;;5035300;28;20195;-46
2022/11/04 05:34:55;;;;;;;3.30;2.97;;;11.50;99.90;;;;;;5023476;28;20948;-44
2022/11/04 05:37:24;;;;;;;3.27;2.57;;;11.50;99.90;;;;;;5036488;28;20613;-49
2022/11/04 05:39:51;;;;;;;4.73;2.57;;;11.50;99.90;;;;;;5041090;28;20187;-45
2022/11/04 05:42:18;;;;;;;2.10;1.90;;;11.50;99.90;;;;;;5042617;28;20207;-44
2022/11/04 05:44:44;;;;;;;3.10;2.30;;;11.50;99.90;;;;;;5031780;28;20215;-47
2022/11/04 05:47:11;;;;;;;1.70;1.60;;;11.50;99.90;;;;;;5034379;28;20199;-49
2022/11/04 05:49:38;;;;;;;2.60;2.40;;;11.50;99.90;;;;;;5025920;28;20214;-46
2022/11/04 05:52:05;;;;;;;2.50;1.97;;;11.50;99.90;;;;;;5033996;28;20207;-48
2022/11/04 05:54:33;;;;;;;2.80;2.60;;;11.50;99.90;;;;;;5040648;28;20554;-48
2022/11/04 05:57:00;;;;;;;1.90;1.80;;;11.50;99.90;;;;;;5036700;28;20211;-47
2022/11/04 05:59:27;;;;;;;3.00;2.20;;;11.50;99.90;;;;;;5042523;28;20875;-44
2022/11/04 06:01:53;;;;;;;2.73;2.30;;;11.50;99.90;;;;;;5037785;28;20234;-50
2022/11/04 06:04:21;;;;;;;3.40;3.13;;;11.50;99.90;;;;;;5026808;28;20226;-44
2022/11/04 06:06:47;;;;;;;2.80;2.50;;;11.50;99.90;;;;;;5036379;28;20824;-47
2022/11/04 06:09:14;;;;;;;2.83;2.30;;;11.50;99.90;;;;;;5042416;28;20206;-44
2022/11/04 06:11:44;;;;;;;3.00;2.70;;;11.50;99.90;;;;;;5036405;28;20286;-45
2022/11/04 06:14:10;;;;;;;2.40;2.13;;;11.50;99.90;;;;;;5039157;28;20238;-47
2022/11/04 06:16:37;;;;;;;5.37;2.57;;;11.40;99.90;;;;;;5040731;28;20199;-49
2022/11/04 06:19:03;;;;;;;2.37;2.17;;;11.50;99.90;;;;;;5029037;28;20203;-44
2022/11/04 06:21:31;;;;;;;3.33;2.33;;;11.50;99.90;;;;;;5039161;28;20203;-48
2022/11/04 06:23:59;;;;;;;4.67;3.03;;;11.40;99.90;;;;;;5038940;28;20298;-46
2022/11/04 06:26:29;;;;;;;4.80;3.30;;;11.50;99.90;;;;;;5036664;28;20211;-45
2022/11/04 06:28:58;;;;;;;3.07;2.70;;;11.40;99.90;;;;;;5039081;28;20200;-45
2022/11/04 06:31:25;;;;;;;2.60;2.40;;;11.40;99.90;;;;;;5045551;28;20206;-46
2022/11/04 06:33:52;;;;;;;3.33;3.03;;;11.40;99.90;;;;;;5037104;28;20218;-46
2022/11/04 06:36:18;;;;;;;2.40;2.20;;;11.40;99.90;;;;;;5017451;28;20204;-45
2022/11/04 06:38:45;;;;;;;3.00;2.80;;;11.40;99.90;;;;;;5034792;28;20223;-47
2022/11/04 06:41:14;;;;;;;4.20;3.00;;;11.40;99.90;;;;;;5044636;28;20196;-44
2022/11/04 06:43:41;;;;;;;3.00;2.70;;;11.40;99.90;;;;;;5031684;28;20235;-46
2022/11/04 06:46:24;;;;;;;3.23;2.20;;;11.40;99.90;;;;;;5043414;28;20208;-45
2022/11/04 06:48:52;;;;;;;5.77;4.33;;;11.40;99.90;;;;;;5036457;28;20262;-44
2022/11/04 06:51:19;;;;;;;3.73;3.40;;;11.30;99.90;;;;;;5030983;28;20207;-44
2022/11/04 06:53:46;;;;;;;5.10;3.67;;;11.30;99.90;;;;;;5033826;28;20322;-49
2022/11/04 06:56:12;;;;;;;3.90;3.60;;;11.30;99.90;;;;;;5043595;28;20195;-45
2022/11/04 06:58:40;;;;;;;4.37;3.83;;;11.30;99.90;;;;;;5037479;28;20286;-50
2022/11/04 07:01:07;;;;;;;4.20;3.80;;;11.30;99.90;;;;;;5043482;28;20984;-46
2022/11/04 07:03:35;;;;;;;3.30;3.10;;;11.30;99.90;;;;;;5038441;28;20223;-47
2022/11/04 07:06:06;;;;;;;4.03;3.67;;;11.30;99.90;;;;;;5028167;28;20219;-48
2022/11/04 07:08:33;;;;;;;3.83;3.23;;;11.30;99.90;;;;;;5044294;28;20195;-46
2022/11/04 07:11:00;;;;;;;3.23;2.90;;;11.30;99.90;;;;;;5039763;28;20199;-46
2022/11/04 07:13:27;;;;;;;3.23;2.93;;;11.30;99.90;;;;;;5035994;28;20223;-47
2022/11/04 07:15:54;;;;;;;4.43;4.00;;;11.30;99.90;;;;;;5037997;28;20218;-45
2022/11/04 07:18:20;;;;;;;5.27;3.53;;;11.30;99.90;;;;;;5033638;28;20196;-44
2022/11/04 07:20:49;;;;;;;4.30;3.13;;;11.20;99.90;;;;;;5027221;28;20199;-47
2022/11/04 07:23:15;;;;;;;6.00;5.13;;;11.20;99.90;;;;;;5030423;28;20230;-46
2022/11/04 07:25:42;;;;;;;5.03;3.40;;;11.20;99.90;;;;;;5042291;28;20238;-45
2022/11/04 07:28:10;;;;;;;3.60;3.13;;;11.20;99.90;;;;;;5034535;28;20282;-47
2022/11/04 07:30:36;;;;;;;3.53;3.30;;;11.20;99.90;;;;;;5032622;28;20817;-46
2022/11/04 07:33:03;;;;;;;3.70;3.40;;;11.20;99.90;;;;;;5037477;28;20215;-49
2022/11/04 07:35:30;;;;;;;7.33;6.00;;;11.20;99.90;;;;;;5034221;28;20187;-49
2022/11/04 07:37:58;;;;;;;6.47;4.60;;;11.20;99.90;;;;;;5029839;28;20199;-46
2022/11/04 07:40:25;;;;;;;6.73;4.57;;;11.10;99.90;;;;;;5033553;28;20221;-48
2022/11/04 07:42:51;;;;;;;6.50;5.07;;;11.10;99.90;;;;;;5032857;28;20203;-45
2022/11/04 07:45:18;;;;;;;4.93;4.53;;;11.10;99.90;;;;;;5032481;28;20294;-47
2022/11/04 07:47:45;;;;;;;5.40;4.90;;;11.10;99.90;;;;;;5036587;28;20287;-45
2022/11/04 07:50:12;;;;;;;5.00;4.50;;;11.00;99.90;;;;;;5034523;28;20611;-49
2022/11/04 07:52:39;;;;;;;4.87;4.47;;;11.00;99.90;;;;;;5023869;28;21315;-46
2022/11/04 07:55:09;;;;;;;5.43;4.43;;;11.00;99.90;;;;;;5036390;28;20245;-48
2022/11/04 07:57:36;;;;;;;4.87;4.10;;;11.00;99.90;;;;;;5032749;28;20203;-45
2022/11/04 08:00:05;;;;;;;4.50;4.03;;;11.00;99.90;;;;;;5036099;28;20231;-48
2022/11/04 08:02:38;;;;;;;5.93;4.40;;;11.00;99.90;;;;;;5038169;28;20277;-45
2022/11/04 08:05:06;;;;;;;6.60;4.67;;;11.10;99.90;;;;;;5028582;28;20195;-50
2022/11/04 08:07:33;;;;;;;5.37;4.87;;;11.10;99.90;;;;;;5021325;28;20203;-48
2022/11/04 08:10:00;;;;;;;5.97;5.17;;;11.20;99.90;;;;;;5023114;28;20668;-50
2022/11/04 08:12:28;;;;;;;6.97;4.67;;;11.20;99.90;;;;;;5037257;28;20207;-46
2022/11/04 08:14:55;;;;;;;5.03;4.63;;;11.20;99.90;;;;;;5030403;28;20904;-47
2022/11/04 08:17:21;;;;;;;5.33;4.43;;;11.20;99.90;;;;;;5032777;28;20183;-49
2022/11/04 08:19:49;;;;;;;4.70;4.30;;;11.20;99.90;;;;;;5030734;28;20195;-48
2022/11/04 08:22:15;;;;;;;4.20;3.90;;;11.20;99.90;;;;;;5032130;28;20213;-44
2022/11/04 08:24:42;;;;;;;5.53;4.07;;;11.20;99.90;;;;;;5019801;28;20589;-46
2022/11/04 08:27:09;;;;;;;5.63;4.50;;;11.30;99.90;;;;;;5027388;28;20834;-47
2022/11/04 08:29:37;;;;;;;6.93;5.57;;;11.30;99.90;;;;;;5036369;28;20199;-46
2022/11/04 08:32:04;;;;;;;5.47;4.97;;;11.20;99.90;;;;;;5017455;28;20269;-45
2022/11/04 08:34:30;;;;;;;5.70;5.20;;;11.20;99.90;;;;;;5023612;28;21020;-45
2022/11/04 08:36:59;;;;;;;5.33;4.83;;;11.20;99.90;;;;;;5032555;28;20282;-46
2022/11/04 08:39:26;;;;;;;5.30;4.80;;;11.20;99.90;;;;;;5023328;28;20222;-46
2022/11/04 08:41:53;;;;;;;5.07;4.70;;;11.20;99.90;;;;;;5035202;28;20203;-47
2022/11/04 08:44:21;;;;;;;5.97;4.80;;;11.30;99.90;;;;;;5031096;28;20218;-48
2022/11/04 08:46:49;;;;;;;5.10;4.70;;;11.30;99.90;;;;;;5030892;28;20228;-45
2022/11/04 08:49:16;;;;;;;5.73;4.47;;;11.30;99.90;;;;;;5033673;28;21208;-49
2022/11/04 08:51:45;;;;;;;4.40;4.10;;;11.30;99.90;;;;;;5029389;28;20202;-47
2022/11/04 08:54:12;;;;;;;4.40;4.03;;;11.30;99.90;;;;;;5035451;28;20222;-46
2022/11/04 08:56:40;;;;;;;5.73;5.07;;;11.30;99.90;;;;;;5011345;28;20199;-46
2022/11/04 08:59:07;;;;;;;8.43;6.17;;;11.30;99.90;;;;;;5025270;28;20206;-46
2022/11/04 09:01:35;;;;;;;6.97;6.00;;;11.30;99.90;;;;;;5034058;28;20190;-45
2022/11/04 09:04:04;;;;;;;4.73;4.30;;;11.30;99.90;;;;;;5023223;28;20712;-45
2022/11/04 09:06:34;;;;;;;4.83;4.43;;;11.40;99.90;;;;;;5025449;28;20241;-45
2022/11/04 09:09:03;;;;;;;5.87;4.80;;;11.40;99.90;;;;;;5031624;28;20199;-45
2022/11/04 09:11:31;;;;;;;5.80;5.20;;;11.40;99.90;;;;;;5021046;28;20203;-46
2022/11/04 09:14:00;;;;;;;5.30;4.80;;;11.40;99.90;;;;;;5033431;28;20235;-45
2022/11/04 09:16:28;;;;;;;6.37;5.63;;;11.40;99.90;;;;;;5035548;28;20790;-47
2022/11/04 09:18:57;;;;;;;9.03;7.13;;;11.50;99.90;;;;;;5036049;28;20207;-45
2022/11/04 09:21:25;;;;;;;5.73;4.70;;;11.50;99.90;;;;;;5035037;28;20277;-46
2022/11/04 09:23:53;;;;;;;5.93;4.40;;;11.50;99.90;;;;;;5035890;28;20215;-45
2022/11/04 09:26:21;;;;;;;4.97;4.50;;;11.50;99.90;;;;;;5022096;28;20207;-50
2022/11/04 09:28:48;;;;;;;6.73;6.03;;;11.50;99.90;;;;;;5034573;28;20211;-49
2022/11/04 09:31:17;;;;;;;5.87;5.27;;;11.60;99.90;;;;;;5033741;28;20207;-47
2022/11/04 09:33:44;;;;;;;6.33;5.53;;;11.60;99.90;;;;;;5029656;28;20376;-45
2022/11/04 09:36:12;;;;;;;5.93;4.87;;;11.70;99.90;;;;;;5034412;28;20602;-49
2022/11/04 09:38:42;;;;;;;4.77;4.27;;;11.70;99.90;;;;;;5027940;28;20207;-46
2022/11/04 09:41:22;;;;;;;4.43;4.03;;;11.70;99.90;;;;;;5035047;28;20195;-46
2022/11/04 09:43:56;;;;;;;5.33;4.93;;;11.70;99.90;;;;;;5033575;28;20236;-45
2022/11/04 09:46:24;;;;;;;6.03;5.43;;;11.70;99.90;;;;;;5021028;28;20881;-50
2022/11/04 09:48:54;;;;;;;5.07;4.53;;;11.70;99.90;;;;;;5036535;28;20199;-46
2022/11/04 09:51:25;;;;;;;5.33;3.80;;;11.70;99.90;;;;;;5033178;28;20227;-50
2022/11/04 09:53:57;;;;;;;4.00;3.70;;;11.70;99.90;;;;;;5032352;28;20234;-46
2022/11/04 09:56:29;;;;;;;3.67;3.33;;;11.70;99.90;;;;;;5035713;28;20202;-45
2022/11/04 09:58:56;;;;;;;5.03;3.30;;;11.80;99.90;;;;;;5024522;28;20225;-48
2022/11/04 10:01:28;;;;;;;3.03;2.83;;;11.80;99.90;;;;;;5031723;28;20196;-46
2022/11/04 10:04:20;;;;;;;5.23;2.77;;;11.80;99.90;;;;;;5033219;28;20583;-48
2022/11/04 10:07:02;;;;;;;2.60;2.40;;;11.90;99.90;;;;;;5044358;28;20816;-45
2022/11/04 10:09:43;;;;;;;2.40;2.20;;;11.90;99.90;;;;;;5031460;28;20206;-45
2022/11/04 10:12:21;;;;;;;2.20;2.10;;;11.90;99.90;;;;;;5036713;28;20253;-47
2022/11/04 10:15:07;;;;;;;1.83;1.73;;;11.90;99.90;;;;;;5027844;28;20329;-44
2022/11/04 10:17:49;;;;;;;4.60;2.30;;;11.90;99.90;;;;;;5036683;28;20199;-47
2022/11/04 10:20:28;;;;;;;2.90;1.50;;;12.00;99.90;;;;;;5022108;28;20954;-46
2022/11/04 10:23:02;;;;;;;1.90;1.80;;;12.00;99.90;;;;;;5038542;28;20209;-48
2022/11/04 10:25:38;;;;;;;3.77;1.97;;;11.90;99.90;;;;;;5028968;28;20536;-48
2022/11/04 10:28:09;;;;;;;3.27;2.23;;;11.90;99.90;;;;;;5041786;28;20203;-47
2022/11/04 10:30:35;;;;;;;1.67;1.40;;;11.90;99.90;;;;;;5025289;28;20207;-46
2022/11/04 10:33:09;;;;;;;1.60;1.50;;;12.00;99.90;;;;;;5032480;28;20223;-46
2022/11/04 10:35:40;;;;;;;1.50;1.40;;;12.00;99.90;;;;;;5041389;28;20196;-47
2022/11/04 10:38:21;;;;;;;2.07;1.60;;;12.00;99.90;;;;;;5035884;28;20475;-46
2022/11/04 10:40:52;;;;;;;1.77;1.50;;;12.10;99.90;;;;;;5043608;28;20207;-45
2022/11/04 10:43:28;;;;;;;2.83;1.40;;;12.10;99.90;;;;;;5035511;28;21015;-47
2022/11/04 10:46:08;;;;;;;3.27;1.13;;;12.10;99.90;;;;;;5030811;28;20207;-48
2022/11/04 10:48:43;;;;;;;3.00;1.20;;;12.20;99.90;;;;;;5036219;28;20195;-49
2022/11/04 10:51:10;;;;;;;2.77;1.07;;;12.20;99.90;;;;;;5028528;28;20221;-47
2022/11/04 10:53:36;;;;;;;2.90;1.30;;;12.30;99.90;;;;;;5039008;28;20219;-45
2022/11/04 10:56:11;;;;;;;1.37;0.60;;;12.30;99.90;;;;;;5032059;28;20193;-48
2022/11/04 10:58:44;;;;;;;2.00;0.70;;;12.30;99.90;;;;;;5035903;28;20226;-46
2022/11/04 11:01:26;;;;;;;1.80;0.70;;;12.30;99.90;;;;;;5031313;28;20207;-47
2022/11/04 11:03:53;;;;;;;0.90;0.80;;;12.30;99.90;;;;;;5036254;28;20273;-47
2022/11/04 11:06:26;;;;;;;1.13;1.03;;;12.30;99.90;;;;;;5036497;28;20215;-48
2022/11/04 11:08:56;;;;;;;2.47;0.80;;;12.40;99.90;;;;;;5039041;28;20206;-47
2022/11/04 11:11:40;;;;;;;2.23;0.50;;;12.40;99.90;;;;;;5033420;28;20211;-48
2022/11/04 11:14:17;;;;;;;0.97;0.60;;;12.50;99.90;;;;;;5033346;28;20315;-46
2022/11/04 11:16:44;;;;;;;3.23;0.80;;;12.50;99.90;;;;;;5031517;28;20211;-45
2022/11/04 11:19:19;;;;;;;0.70;0.60;;;12.50;99.90;;;;;;5026803;28;20191;-46
2022/11/04 11:21:48;;;;;;;3.20;0.80;;;12.60;99.90;;;;;;5036451;28;20687;-46
2022/11/04 11:24:20;;;;;;;1.23;0.90;;;12.70;99.90;;;;;;5029782;28;20218;-45
2022/11/04 11:26:50;;;;;;;1.07;0.90;;;12.70;99.90;;;;;;5036868;28;20298;-44
2022/11/04 11:29:21;;;;;;;2.83;0.93;;;12.80;99.90;;;;;;5035523;28;20203;-44
2022/11/04 11:31:50;;;;;;;0.90;0.50;;;12.90;99.90;;;;;;5037751;28;20605;-44
2022/11/04 11:34:22;;;;;;;2.83;0.77;;;12.90;99.90;;;;;;5032261;28;20222;-48
2022/11/04 11:36:50;;;;;;;2.07;0.80;;;12.90;99.90;;;;;;5042984;28;20202;-48
2022/11/04 11:39:20;;;;;;;2.27;0.60;;;13.00;99.90;;;;;;5038113;28;20199;-44
2022/11/04 11:41:55;;;;;;;1.53;0.40;;;13.00;99.90;;;;;;5040018;28;20719;-44
2022/11/04 11:44:30;;;;;;;2.97;0.50;;;13.10;99.90;;;;;;5029535;28;20238;-47
2022/11/04 11:47:00;;;;;;;4.30;0.70;;;13.10;99.90;;;;;;5038151;28;20237;-49
2022/11/04 11:49:30;;;;;;;1.40;0.90;;;13.20;99.90;;;;;;5039348;28;20219;-44
2022/11/04 11:52:17;;;;;;;2.87;0.50;;;13.20;99.90;;;;;;5034715;28;20204;-48
2022/11/04 11:54:48;;;;;;;1.27;0.67;;;13.30;99.90;;;;;;5039725;28;20288;-47
2022/11/04 11:57:36;;;;;;;1.70;0.47;;;13.30;99.90;;;;;;5030837;28;20195;-44
2022/11/04 12:00:08;;;;;;;3.80;0.30;;;13.30;99.90;;;;;;5033022;28;20211;-46
2022/11/04 12:02:45;;;;;;;2.70;0.50;;;13.30;99.90;;;;;;5043973;28;20202;-44
2022/11/04 12:05:14;;;;;;;1.93;0.67;;;13.30;99.90;;;;;;5029771;28;20207;-46
2022/11/04 12:07:50;;;;;;;0.70;0.40;;;13.30;99.90;;;;;;5040563;28;20223;-45
2022/11/04 12:10:26;;;;;;;2.07;0.50;;;13.30;99.90;;;;;;5037691;28;20215;-45
2022/11/04 12:13:04;;;;;;;3.43;0.80;;;13.30;99.90;;;;;;5037162;28;20217;-47
2022/11/04 12:15:54;;;;;;;1.23;0.40;;;13.20;99.90;;;;;;5034729;28;20687;-46
2022/11/04 12:18:46;;;;;;;2.10;0.60;;;13.20;99.90;;;;;;5037072;28;20215;-45
2022/11/04 12:21:15;;;;;;;3.03;0.70;;;13.20;99.90;;;;;;5027233;28;20223;-46
2022/11/04 12:23:49;;;;;;;3.97;0.50;;;13.20;99.90;;;;;;5028579;28;20227;-47
2022/11/04 12:26:29;;;;;;;2.93;0.50;;;13.30;99.90;;;;;;5035117;28;20198;-47
2022/11/04 12:29:26;;;;;;;4.23;0.60;;;13.30;99.90;;;;;;5036764;28;20572;-50
2022/11/04 12:32:05;;;;;;;1.30;0.40;;;13.40;99.90;;;;;;5035222;28;20684;-48
2022/11/04 12:34:45;;;;;;;3.33;0.93;;;13.50;99.90;;;;;;5038606;28;20221;-46
2022/11/04 12:37:22;;;;;;;3.67;0.53;;;13.60;99.90;;;;;;5028077;28;20199;-44
2022/11/04 12:40:10;;;;;;;3.13;0.70;;;13.60;99.90;;;;;;5040354;28;20584;-45
2022/11/04 12:42:49;;;;;;;4.23;0.80;;;13.60;99.90;;;;;;5034794;28;20191;-45
2022/11/04 12:45:29;;;;;;;4.20;1.07;;;13.60;99.90;;;;;;5039589;28;20207;-44
2022/11/04 12:48:04;;;;;;;2.37;0.53;;;13.50;99.90;;;;;;5036543;28;20229;-45
2022/11/04 12:50:53;;;;;;;1.83;0.50;;;13.40;99.90;;;;;;5032763;28;20281;-44
2022/11/04 12:53:53;;;;;;;1.33;0.60;;;13.50;99.90;;;;;;5029847;28;20211;-50
2022/11/04 12:56:26;;;;;;;2.97;0.83;;;13.60;99.90;;;;;;5041330;28;20207;-45
2022/11/04 12:59:14;;;;;;;3.30;0.60;;;13.70;99.90;;;;;;5038584;28;20207;-47
2022/11/04 13:01:48;;;;;;;2.73;0.50;;;13.70;99.90;;;;;;5032685;28;20207;-45
2022/11/04 13:04:21;;;;;;;2.67;0.70;;;13.70;99.90;;;;;;5037519;28;20206;-46
2022/11/04 13:06:53;;;;;;;2.50;0.60;;;13.60;99.90;;;;;;5030810;28;20711;-45
2022/11/04 13:09:30;;;;;;;2.17;0.60;;;13.50;99.90;;;;;;5035341;28;20211;-47
2022/11/04 13:12:03;;;;;;;2.63;0.80;;;13.50;99.90;;;;;;5037347;28;20199;-45
2022/11/04 13:14:34;;;;;;;1.97;0.70;;;13.40;99.90;;;;;;5031519;28;20304;-46
2022/11/04 13:17:07;;;;;;;4.93;1.60;;;13.40;99.90;;;;;;5034726;28;20249;-45
2022/11/04 13:19:37;;;;;;;3.63;1.40;;;13.30;99.90;;;;;;5039586;28;20206;-46
2022/11/04 13:22:08;;;;;;;2.13;0.77;;;13.30;99.90;;;;;;5029154;28;20212;-47
2022/11/04 13:24:41;;;;;;;4.93;0.90;;;13.30;99.90;;;;;;5036678;28;20225;-45
2022/11/04 13:27:18;;;;;;;3.10;0.83;;;13.20;99.90;;;;;;5039356;28;20207;-48
2022/11/04 13:29:45;;;;;;;2.43;0.50;;;13.30;99.90;;;;;;5037780;28;20883;-44
2022/11/04 13:32:25;;;;;;;2.00;0.50;;;13.30;99.90;;;;;;5036227;28;20199;-46